createdAt,value
2018-03-24T00:01:38.555Z,0.10
2018-03-24T00:04:13.225Z,0.10
2018-03-24T00:06:48.591Z,0.10
2018-03-24T00:09:23.191Z,0.20
2018-03-24T00:11:57.966Z,0.20
2018-03-24T00:14:32.859Z,0.20
2018-03-24T00:17:07.948Z,0.20
2018-03-24T00:19:43.011Z,0.10
2018-03-24T00:22:19.977Z,0.10
2018-03-24T00:24:54.481Z,0.10
2018-03-24T00:27:29.637Z,0.20
2018-03-24T00:30:04.961Z,0.20
2018-03-24T00:32:40.292Z,0.10
2018-03-24T00:35:15.279Z,0.10
2018-03-24T00:37:50.488Z,0.10
2018-03-24T00:40:25.027Z,0.00
2018-03-24T00:43:01.157Z,-0.10
2018-03-24T00:45:32.304Z,-0.20
2018-03-24T00:48:07.427Z,-0.20
2018-03-24T00:50:42.476Z,-0.30
2018-03-24T00:53:17.869Z,-0.40
2018-03-24T00:55:52.930Z,-0.50
2018-03-24T00:58:28.254Z,-0.60
2018-03-24T01:00:59.229Z,-0.70
2018-03-24T01:03:34.181Z,-0.90
2018-03-24T01:06:09.839Z,-1.20
2018-03-24T01:08:46.333Z,-1.30
2018-03-24T01:11:21.677Z,-1.40
2018-03-24T01:13:56.823Z,-1.40
2018-03-24T01:16:32.411Z,-1.50
2018-03-24T01:19:07.674Z,-1.60
2018-03-24T01:21:42.441Z,-1.60
2018-03-24T01:24:17.758Z,-1.70
2018-03-24T01:26:53.097Z,-1.70
2018-03-24T01:29:28.165Z,-1.80
2018-03-24T01:32:02.925Z,-1.80
2018-03-24T01:34:37.863Z,-1.80
2018-03-24T01:37:12.687Z,-1.90
2018-03-24T01:39:48.245Z,-2.00
2018-03-24T01:42:24.441Z,-2.10
2018-03-24T01:44:59.728Z,-2.20
2018-03-24T01:47:34.712Z,-2.20
2018-03-24T01:50:10.005Z,-2.20
2018-03-24T01:52:44.980Z,-2.30
2018-03-24T01:55:20.255Z,-2.30
2018-03-24T01:57:55.184Z,-2.30
2018-03-24T02:00:26.187Z,-2.40
2018-03-24T02:03:00.867Z,-2.40
2018-03-24T02:05:35.901Z,-2.40
2018-03-24T02:08:10.994Z,-2.50
2018-03-24T02:10:46.257Z,-2.60
2018-03-24T02:13:20.836Z,-2.60
2018-03-24T02:15:51.881Z,-2.60
2018-03-24T02:18:26.807Z,-2.60
2018-03-24T02:21:03.310Z,-2.70
2018-03-24T02:23:38.160Z,-2.70
2018-03-24T02:26:13.482Z,-2.70
2018-03-24T02:28:49.260Z,-2.80
2018-03-24T02:31:20.454Z,-2.80
2018-03-24T02:33:54.952Z,-2.80
2018-03-24T02:36:30.973Z,-2.80
2018-03-24T02:39:05.967Z,-2.90
2018-03-24T02:41:41.094Z,-2.80
2018-03-24T02:44:16.101Z,-2.90
2018-03-24T02:46:51.223Z,-2.90
2018-03-24T02:49:26.195Z,-2.90
2018-03-24T02:52:01.453Z,-3.00
2018-03-24T02:54:36.202Z,-3.00
2018-03-24T02:57:11.190Z,-3.00
2018-03-24T02:59:46.400Z,-3.00
2018-03-24T03:02:22.530Z,-3.10
2018-03-24T03:04:57.194Z,-3.10
2018-03-24T03:07:33.301Z,-3.10
2018-03-24T03:10:08.364Z,-3.20
2018-03-24T03:12:43.759Z,-3.20
2018-03-24T03:15:14.859Z,-3.20
2018-03-24T03:17:50.667Z,-3.30
2018-03-24T03:20:25.623Z,-3.40
2018-03-24T03:23:00.911Z,-3.30
2018-03-24T03:25:36.915Z,-3.40
2018-03-24T03:28:12.251Z,-3.40
2018-03-24T03:30:58.592Z,-3.30
2018-03-24T03:33:33.847Z,-3.30
2018-03-24T03:36:09.605Z,-3.40
2018-03-24T03:38:45.801Z,-3.40
2018-03-24T03:41:20.727Z,-3.40
2018-03-24T03:43:55.483Z,-3.30
2018-03-24T03:46:29.965Z,-3.30
2018-03-24T03:49:05.049Z,-3.30
2018-03-24T03:51:35.921Z,-3.30
2018-03-24T03:54:12.075Z,-3.30
2018-03-24T03:56:48.118Z,-3.30
2018-03-24T03:59:23.415Z,-3.40
2018-03-24T04:01:59.557Z,-3.40
2018-03-24T04:04:34.657Z,-3.40
2018-03-24T04:07:09.263Z,-3.50
2018-03-24T04:09:45.331Z,-3.40
2018-03-24T04:12:20.315Z,-3.50
2018-03-24T04:14:55.627Z,-3.40
2018-03-24T04:17:30.655Z,-3.30
2018-03-24T04:20:07.092Z,-3.30
2018-03-24T04:22:42.125Z,-3.20
2018-03-24T04:25:17.495Z,-3.30
2018-03-24T04:27:52.997Z,-3.20
2018-03-24T04:30:24.517Z,-3.30
2018-03-24T04:32:59.385Z,-3.20
2018-03-24T04:35:34.457Z,-3.20
2018-03-24T04:38:10.218Z,-3.30
2018-03-24T04:40:46.513Z,-3.40
2018-03-24T04:43:21.618Z,-3.40
2018-03-24T04:45:53.595Z,-3.50
2018-03-24T04:48:28.519Z,-3.50
2018-03-24T04:51:03.507Z,-3.60
2018-03-24T04:53:38.230Z,-3.60
2018-03-24T04:56:13.614Z,-3.70
2018-03-24T04:58:49.115Z,-3.70
2018-03-24T05:01:20.117Z,-3.80
2018-03-24T05:03:51.214Z,-3.70
2018-03-24T05:06:26.179Z,-3.70
2018-03-24T05:09:00.764Z,-3.70
2018-03-24T05:11:36.478Z,-3.70
2018-03-24T05:14:11.383Z,-3.80
2018-03-24T05:16:47.232Z,-3.80
2018-03-24T05:19:22.191Z,-3.80
2018-03-24T05:21:57.269Z,-3.80
2018-03-24T05:24:32.041Z,-3.80
2018-03-24T05:27:07.305Z,-3.80
2018-03-24T05:29:42.437Z,-3.70
2018-03-24T05:32:17.514Z,-3.60
2018-03-24T05:34:52.561Z,-3.60
2018-03-24T05:37:28.478Z,-3.60
2018-03-24T05:40:03.157Z,-3.60
2018-03-24T05:42:38.263Z,-3.50
2018-03-24T05:45:10.927Z,-3.50
2018-03-24T05:47:45.928Z,-3.60
2018-03-24T05:50:20.929Z,-3.50
2018-03-24T05:52:56.960Z,-3.50
2018-03-24T05:55:31.789Z,-3.50
2018-03-24T05:58:07.747Z,-3.40
2018-03-24T06:00:38.860Z,-3.30
2018-03-24T06:03:14.486Z,-3.10
2018-03-24T06:05:49.325Z,-2.90
2018-03-24T06:08:24.208Z,-2.50
2018-03-24T06:10:59.171Z,-2.10
2018-03-24T06:13:35.945Z,-1.70
2018-03-24T06:16:06.863Z,-1.40
2018-03-24T06:18:42.440Z,-1.00
2018-03-24T06:21:17.381Z,-1.00
2018-03-24T06:23:53.000Z,-0.80
2018-03-24T06:26:27.813Z,-0.60
2018-03-24T06:29:04.052Z,-0.10
2018-03-24T06:31:41.163Z,-0.20
2018-03-24T06:34:17.607Z,0.50
2018-03-24T06:36:56.408Z,0.50
2018-03-24T06:39:31.509Z,0.90
2018-03-24T06:42:06.723Z,1.10
2018-03-24T06:44:42.799Z,1.50
2018-03-24T06:47:17.703Z,1.40
2018-03-24T06:49:53.935Z,1.30
2018-03-24T06:52:28.939Z,1.00
2018-03-24T06:55:03.994Z,0.70
2018-03-24T06:57:38.840Z,0.60
2018-03-24T07:00:11.494Z,0.60
2018-03-24T07:02:51.110Z,0.70
2018-03-24T07:05:27.493Z,1.10
2018-03-24T07:08:02.435Z,1.00
2018-03-24T07:10:38.154Z,1.10
2018-03-24T07:13:13.073Z,1.00
2018-03-24T07:15:44.874Z,1.50
2018-03-24T07:18:19.799Z,1.50
2018-03-24T07:20:55.523Z,1.60
2018-03-24T07:23:31.126Z,1.90
2018-03-24T07:26:06.769Z,1.80
2018-03-24T07:28:41.507Z,2.20
2018-03-24T07:31:12.661Z,2.60
2018-03-24T07:33:47.913Z,2.90
2018-03-24T07:36:23.758Z,3.60
2018-03-24T07:38:58.840Z,3.60
2018-03-24T07:41:34.078Z,3.90
2018-03-24T07:44:08.944Z,3.90
2018-03-24T07:46:45.980Z,3.90
2018-03-24T07:49:21.300Z,4.10
2018-03-24T07:51:57.751Z,4.70
2018-03-24T07:54:32.552Z,4.60
2018-03-24T07:57:08.149Z,5.10
2018-03-24T07:59:47.929Z,5.60
2018-03-24T08:02:23.220Z,5.60
2018-03-24T08:04:59.874Z,5.90
2018-03-24T08:07:35.407Z,5.90
2018-03-24T08:10:10.711Z,5.90
2018-03-24T08:12:46.074Z,6.00
2018-03-24T08:15:17.345Z,6.10
2018-03-24T08:17:53.416Z,6.10
2018-03-24T08:20:28.644Z,6.10
2018-03-24T08:23:04.456Z,6.20
2018-03-24T08:25:39.517Z,6.10
2018-03-24T08:28:14.673Z,6.30
2018-03-24T08:30:45.748Z,6.60
2018-03-24T08:33:20.885Z,6.90
2018-03-24T08:35:55.411Z,7.00
2018-03-24T08:38:30.672Z,7.00
2018-03-24T08:41:05.434Z,7.20
2018-03-24T08:43:40.569Z,7.30
2018-03-24T08:46:11.560Z,7.40
2018-03-24T08:48:46.711Z,7.60
2018-03-24T08:51:21.714Z,7.90
2018-03-24T08:53:57.777Z,8.20
2018-03-24T08:56:32.667Z,8.10
2018-03-24T08:59:07.850Z,8.10
2018-03-24T09:01:43.003Z,8.10
2018-03-24T09:04:18.273Z,8.00
2018-03-24T09:06:53.613Z,8.30
2018-03-24T09:09:28.594Z,8.30
2018-03-24T09:12:04.166Z,8.10
2018-03-24T09:14:39.447Z,8.00
2018-03-24T09:17:14.407Z,8.10
2018-03-24T09:19:51.033Z,8.70
2018-03-24T09:22:27.155Z,8.70
2018-03-24T09:25:03.123Z,9.10
2018-03-24T09:27:37.819Z,9.30
2018-03-24T09:30:10.442Z,9.20
2018-03-24T09:32:46.545Z,9.00
2018-03-24T09:35:22.011Z,9.10
2018-03-24T09:37:58.276Z,9.40
2018-03-24T09:40:34.053Z,9.30
2018-03-24T09:43:06.082Z,9.60
2018-03-24T09:45:37.179Z,9.70
2018-03-24T09:48:12.339Z,9.90
2018-03-24T09:50:47.341Z,10.00
2018-03-24T09:53:23.393Z,9.80
2018-03-24T09:55:58.607Z,9.80
2018-03-24T09:58:34.241Z,9.40
2018-03-24T10:01:05.148Z,9.40
2018-03-24T10:03:41.949Z,9.50
2018-03-24T10:06:17.427Z,9.50
2018-03-24T10:08:52.660Z,9.80
2018-03-24T10:11:28.128Z,9.60
2018-03-24T10:14:04.095Z,9.40
2018-03-24T10:16:39.538Z,9.40
2018-03-24T10:19:14.451Z,9.60
2018-03-24T10:22:08.539Z,9.80
2018-03-24T10:24:43.805Z,9.90
2018-03-24T10:27:19.205Z,10.20
2018-03-24T10:29:54.281Z,10.20
2018-03-24T10:32:29.741Z,10.20
2018-03-24T10:35:08.545Z,10.30
2018-03-24T10:37:48.348Z,10.40
2018-03-24T10:40:24.105Z,10.10
2018-03-24T10:43:13.791Z,9.50
2018-03-24T10:45:44.929Z,8.90
2018-03-24T10:48:20.261Z,8.90
2018-03-24T10:50:55.459Z,9.10
2018-03-24T10:53:31.154Z,9.70
2018-03-24T10:56:06.945Z,9.10
2018-03-24T10:58:43.368Z,9.10
2018-03-24T11:01:14.566Z,8.60
2018-03-24T11:03:51.400Z,8.20
2018-03-24T11:06:26.377Z,7.90
2018-03-24T11:09:02.422Z,7.70
2018-03-24T11:11:38.309Z,7.70
2018-03-24T11:14:14.719Z,7.70
2018-03-24T11:16:49.848Z,7.70
2018-03-24T11:19:24.993Z,7.60
2018-03-24T11:22:00.265Z,7.50
2018-03-24T11:24:35.723Z,7.50
2018-03-24T11:27:10.533Z,7.70
2018-03-24T11:29:46.719Z,7.90
2018-03-24T11:32:21.572Z,8.00
2018-03-24T11:34:57.965Z,8.60
2018-03-24T11:37:32.618Z,8.60
2018-03-24T11:40:07.835Z,9.30
2018-03-24T11:42:42.451Z,9.60
2018-03-24T11:45:13.712Z,9.20
2018-03-24T11:47:51.707Z,8.30
2018-03-24T11:50:26.836Z,8.20
2018-03-24T11:53:03.380Z,8.00
2018-03-24T11:55:38.789Z,7.70
2018-03-24T11:58:13.471Z,7.60
2018-03-24T12:00:44.655Z,8.10
2018-03-24T12:03:20.365Z,9.00
2018-03-24T12:05:57.665Z,9.60
2018-03-24T12:08:32.680Z,10.00
2018-03-24T12:11:09.713Z,9.80
2018-03-24T12:13:44.699Z,9.50
2018-03-24T12:16:15.801Z,9.30
2018-03-24T12:18:52.446Z,8.50
2018-03-24T12:21:29.381Z,8.40
2018-03-24T12:24:05.885Z,7.90
2018-03-24T12:26:40.996Z,7.80
2018-03-24T12:29:15.982Z,7.80
2018-03-24T12:31:51.293Z,7.60
2018-03-24T12:34:26.626Z,7.60
2018-03-24T12:37:02.643Z,7.40
2018-03-24T12:39:37.378Z,7.40
2018-03-24T12:42:12.338Z,7.40
2018-03-24T12:44:47.048Z,7.30
2018-03-24T12:47:23.334Z,7.40
2018-03-24T12:49:58.201Z,7.30
2018-03-24T12:52:34.056Z,7.40
2018-03-24T12:55:08.746Z,7.50
2018-03-24T12:57:47.816Z,7.70
2018-03-24T13:00:18.887Z,7.70
2018-03-24T13:02:55.362Z,7.20
2018-03-24T13:05:30.127Z,7.20
2018-03-24T13:08:05.735Z,7.00
2018-03-24T13:10:41.276Z,6.90
2018-03-24T13:13:17.212Z,6.80
2018-03-24T13:15:49.123Z,6.80
2018-03-24T13:18:23.816Z,6.80
2018-03-24T13:20:59.367Z,6.80
2018-03-24T13:23:36.428Z,6.80
2018-03-24T13:26:11.526Z,6.80
2018-03-24T13:28:47.049Z,6.80
2018-03-24T13:31:18.189Z,6.80
2018-03-24T13:33:54.640Z,6.80
2018-03-24T13:36:30.526Z,6.80
2018-03-24T13:39:07.439Z,6.80
2018-03-24T13:41:42.702Z,6.70
2018-03-24T13:44:18.394Z,6.60
2018-03-24T13:46:53.796Z,6.50
2018-03-24T13:49:28.810Z,6.50
2018-03-24T13:52:04.800Z,6.50
2018-03-24T13:54:39.761Z,6.40
2018-03-24T13:57:14.376Z,6.40
2018-03-24T13:59:49.973Z,6.50
2018-03-24T14:02:24.953Z,6.40
2018-03-24T14:05:02.190Z,6.40
2018-03-24T14:07:37.311Z,6.50
2018-03-24T14:10:12.276Z,6.50
2018-03-24T14:12:47.379Z,6.90
2018-03-24T14:15:18.498Z,6.90
2018-03-24T14:17:54.470Z,6.80
2018-03-24T14:20:31.252Z,6.90
2018-03-24T14:23:07.425Z,6.90
2018-03-24T14:25:42.360Z,6.90
2018-03-24T14:28:17.107Z,6.80
2018-03-24T14:30:53.338Z,6.40
2018-03-24T14:33:29.837Z,6.20
2018-03-24T14:36:05.297Z,6.20
2018-03-24T14:38:42.085Z,6.30
2018-03-24T14:41:17.736Z,6.60
2018-03-24T14:43:55.017Z,7.00
2018-03-24T14:46:30.372Z,7.40
2018-03-24T14:49:05.460Z,7.90
2018-03-24T14:51:45.191Z,8.10
2018-03-24T14:54:20.945Z,8.00
2018-03-24T14:56:57.768Z,7.90
2018-03-24T14:59:33.930Z,8.00
2018-03-24T15:02:08.870Z,8.00
2018-03-24T15:04:43.626Z,7.80
2018-03-24T15:07:18.370Z,7.60
2018-03-24T15:09:53.205Z,7.60
2018-03-24T15:12:28.298Z,7.50
2018-03-24T15:15:05.328Z,7.60
2018-03-24T15:17:41.010Z,7.80
2018-03-24T15:20:16.071Z,7.80
2018-03-24T15:22:51.341Z,7.50
2018-03-24T15:25:26.816Z,7.50
2018-03-24T15:28:02.741Z,7.20
2018-03-24T15:30:46.804Z,7.10
2018-03-24T15:33:29.141Z,6.80
2018-03-24T15:36:12.695Z,6.70
2018-03-24T15:38:47.460Z,6.60
2018-03-24T15:41:23.239Z,6.60
2018-03-24T15:43:59.085Z,6.90
2018-03-24T15:46:34.794Z,7.00
2018-03-24T15:49:10.155Z,7.00
2018-03-24T15:51:46.053Z,7.00
2018-03-24T15:54:21.764Z,7.00
2018-03-24T15:56:57.161Z,6.90
2018-03-24T15:59:32.025Z,6.90
2018-03-24T16:02:06.665Z,6.80
2018-03-24T16:04:41.820Z,6.70
2018-03-24T16:07:18.094Z,6.70
2018-03-24T16:09:53.751Z,6.40
2018-03-24T16:12:29.300Z,6.10
2018-03-24T16:15:06.315Z,5.70
2018-03-24T16:17:41.515Z,5.60
2018-03-24T16:20:19.374Z,5.40
2018-03-24T16:22:55.959Z,5.40
2018-03-24T16:25:31.595Z,5.30
2018-03-24T16:30:42.660Z,5.00
2018-03-24T16:33:17.332Z,4.90
2018-03-24T16:35:54.933Z,4.70
2018-03-24T16:38:30.170Z,4.60
2018-03-24T16:41:05.289Z,4.60
2018-03-24T16:43:40.873Z,4.60
2018-03-24T16:46:11.952Z,4.60
2018-03-24T16:48:47.529Z,4.50
2018-03-24T16:51:24.497Z,4.30
2018-03-24T16:53:59.444Z,4.20
2018-03-24T16:56:35.365Z,4.10
2018-03-24T16:59:10.407Z,4.10
2018-03-24T17:01:45.121Z,4.10
2018-03-24T17:04:23.307Z,4.00
2018-03-24T17:06:59.181Z,3.90
2018-03-24T17:09:35.837Z,3.80
2018-03-24T17:12:11.166Z,3.70
2018-03-24T17:14:46.170Z,3.50
2018-03-24T17:17:22.389Z,3.10
2018-03-24T17:19:57.458Z,3.10
2018-03-24T17:22:33.227Z,2.90
2018-03-24T17:25:10.228Z,2.60
2018-03-24T17:27:46.625Z,2.60
2018-03-24T17:30:17.963Z,2.50
2018-03-24T17:32:53.211Z,2.30
2018-03-24T17:35:28.275Z,2.20
2018-03-24T17:38:05.911Z,2.10
2018-03-24T17:40:40.690Z,2.00
2018-03-24T17:43:16.693Z,1.90
2018-03-24T17:45:47.457Z,1.80
2018-03-24T17:48:24.229Z,1.70
2018-03-24T17:50:59.409Z,1.60
2018-03-24T17:53:34.771Z,1.50
2018-03-24T17:56:12.396Z,1.30
2018-03-24T17:58:47.763Z,1.20
2018-03-24T18:01:18.772Z,1.20
2018-03-24T18:03:54.136Z,1.00
2018-03-24T18:06:29.904Z,0.80
2018-03-24T18:09:05.357Z,0.70
2018-03-24T18:11:40.582Z,0.70
2018-03-24T18:14:15.882Z,0.50
2018-03-24T18:17:01.911Z,0.40
2018-03-24T18:19:47.769Z,0.30
2018-03-24T18:22:23.635Z,0.20
2018-03-24T18:24:58.897Z,0.00
2018-03-24T18:27:35.472Z,-0.10
2018-03-24T18:30:09.711Z,-0.20
2018-03-24T18:32:46.817Z,-0.30
2018-03-24T18:35:21.911Z,-0.30
2018-03-24T18:37:58.113Z,-0.40
2018-03-24T18:40:33.603Z,-0.50
2018-03-24T18:43:08.687Z,-0.50
2018-03-24T18:45:39.908Z,-0.60
2018-03-24T18:48:16.251Z,-0.60
2018-03-24T18:50:53.402Z,-0.70
2018-03-24T18:53:28.232Z,-0.70
2018-03-24T18:56:03.789Z,-0.80
2018-03-24T18:58:38.854Z,-0.90
2018-03-24T19:01:10.131Z,-0.90
2018-03-24T19:03:45.273Z,-1.00
2018-03-24T19:06:20.316Z,-1.00
2018-03-24T19:08:55.319Z,-1.10
2018-03-24T19:11:33.205Z,-1.20
2018-03-24T19:14:08.260Z,-1.20
2018-03-24T19:16:46.743Z,-1.30
2018-03-24T19:19:21.746Z,-1.30
2018-03-24T19:21:57.158Z,-1.40
2018-03-24T19:24:32.059Z,-1.40
2018-03-24T19:27:08.699Z,-1.40
2018-03-24T19:29:45.099Z,-1.50
2018-03-24T19:32:20.354Z,-1.50
2018-03-24T19:34:56.231Z,-1.60
2018-03-24T19:37:31.669Z,-1.70
2018-03-24T19:40:06.910Z,-1.60
2018-03-24T19:42:42.384Z,-1.60
2018-03-24T19:45:12.755Z,-1.60
2018-03-24T19:47:48.327Z,-1.70
2018-03-24T19:50:23.169Z,-1.70
2018-03-24T19:52:58.433Z,-1.70
2018-03-24T19:55:33.104Z,-1.70
2018-03-24T19:58:10.108Z,-1.80
2018-03-24T20:00:41.052Z,-1.90
2018-03-24T20:03:16.507Z,-1.90
2018-03-24T20:05:51.408Z,-1.90
2018-03-24T20:08:27.778Z,-1.90
2018-03-24T20:11:03.326Z,-2.00
2018-03-24T20:13:38.459Z,-2.00
2018-03-24T20:16:09.200Z,-2.00
2018-03-24T20:18:44.865Z,-2.10
2018-03-24T20:21:19.891Z,-2.10
2018-03-24T20:23:54.764Z,-2.10
2018-03-24T20:26:29.495Z,-2.20
2018-03-24T20:29:08.806Z,-2.20
2018-03-24T20:31:43.969Z,-2.20
2018-03-24T20:34:20.138Z,-2.30
2018-03-24T20:36:55.290Z,-2.40
2018-03-24T20:39:31.586Z,-2.40
2018-03-24T20:42:06.756Z,-2.50
2018-03-24T20:44:42.841Z,-2.40
2018-03-24T20:47:18.929Z,-2.40
2018-03-24T20:49:54.335Z,-2.50
2018-03-24T20:52:30.317Z,-2.40
2018-03-24T20:55:06.443Z,-2.50
2018-03-24T20:57:41.775Z,-2.50
2018-03-24T21:00:12.496Z,-2.50
2018-03-24T21:02:48.175Z,-2.50
2018-03-24T21:05:23.638Z,-2.50
2018-03-24T21:07:59.545Z,-2.60
2018-03-24T21:10:35.220Z,-2.70
2018-03-24T21:13:10.278Z,-2.70
2018-03-24T21:15:41.587Z,-2.70
2018-03-24T21:18:16.325Z,-2.70
2018-03-24T21:20:51.544Z,-2.70
2018-03-24T21:23:27.938Z,-2.70
2018-03-24T21:26:03.627Z,-2.70
2018-03-24T21:28:38.601Z,-2.70
2018-03-24T21:31:10.025Z,-2.70
2018-03-24T21:33:45.707Z,-2.70
2018-03-24T21:36:21.160Z,-2.80
2018-03-24T21:38:56.137Z,-2.70
2018-03-24T21:41:32.780Z,-2.70
2018-03-24T21:44:09.389Z,-2.80
2018-03-24T21:46:45.668Z,-2.90
2018-03-24T21:49:20.396Z,-2.90
2018-03-24T21:51:55.650Z,-2.90
2018-03-24T21:54:30.181Z,-3.00
2018-03-24T21:57:05.517Z,-3.00
2018-03-24T21:59:40.843Z,-3.00
2018-03-24T22:02:16.011Z,-2.90
2018-03-24T22:04:51.249Z,-3.00
2018-03-24T22:07:26.167Z,-3.00
2018-03-24T22:10:01.131Z,-2.90
2018-03-24T22:12:36.987Z,-2.90
2018-03-24T22:15:10.307Z,-2.90
2018-03-24T22:17:46.277Z,-3.00
2018-03-24T22:20:21.203Z,-3.00
2018-03-24T22:22:56.313Z,-3.00
2018-03-24T22:25:31.295Z,-3.10
2018-03-24T22:28:06.424Z,-3.10
2018-03-24T22:30:37.527Z,-3.10
2018-03-24T22:33:12.951Z,-3.10
2018-03-24T22:35:48.740Z,-3.20
2018-03-24T22:38:24.057Z,-3.20
2018-03-24T22:40:59.638Z,-3.20
2018-03-24T22:43:34.486Z,-3.20
2018-03-24T22:46:05.749Z,-3.20
2018-03-24T22:48:42.087Z,-3.20
2018-03-24T22:51:17.018Z,-3.10
2018-03-24T22:53:52.351Z,-3.10
2018-03-24T22:56:27.567Z,-3.10
2018-03-24T22:59:02.667Z,-3.20
2018-03-24T23:01:37.599Z,-3.20
2018-03-24T23:04:12.440Z,-3.20
2018-03-24T23:06:48.405Z,-3.30
2018-03-24T23:09:24.791Z,-3.40
2018-03-24T23:11:59.571Z,-3.50
2018-03-24T23:14:34.338Z,-3.40
2018-03-24T23:17:09.669Z,-3.50
2018-03-24T23:19:46.566Z,-3.50
2018-03-24T23:22:21.884Z,-3.60
2018-03-24T23:24:58.126Z,-3.50
2018-03-24T23:27:33.271Z,-3.50
2018-03-24T23:30:08.194Z,-3.50
2018-03-24T23:32:43.121Z,-3.50
2018-03-24T23:35:18.256Z,-3.50
2018-03-24T23:37:53.320Z,-3.50
2018-03-24T23:40:29.371Z,-3.60
2018-03-24T23:43:05.113Z,-3.60
2018-03-24T23:45:36.074Z,-3.60
2018-03-24T23:48:11.715Z,-3.70
2018-03-24T23:50:48.216Z,-3.60
2018-03-24T23:53:23.092Z,-3.70
2018-03-24T23:55:58.189Z,-3.60
2018-03-24T23:58:33.122Z,-3.60
